MET'MAP v2.0
soon released !

Expected late october,
this new version will be
more efficient, smarter,
and hosted on a brand new
server x3 powerfull...
...and still free !


Not compatible ?
Try the mobile version !

LOG IN : | Subscribe | Disclaimer | Who is Orbifly ? |
ICAO code :

TAF - LELL Sabadell Airport - 31 May 2020 06:13 UTC
Data Sources :     NOAA   


- Airport Elevation : 485 ft
- IATA code : QSA
- No reported NOTAMs.


LELL - Sabadell Airport

Latest METAR recorded : 2015/08/11 08:00 LELL 110800Z VRB01KT CAVOK 26/17 Q1014
TAF TAF LELL
Valid from the 31 at 03:00 until the 01 at 03:00 UTC


310200Z 3103/0103 VRB03KT 9999 SCT020 TX27/3112Z TN14/3106Z
BECMG 3108/3110 20010KT
BECMG 3120/3122 VRB03KT

Source NOAA


MET'MAP, your aeronautical weather chart ! - Copyright ORBIFLY December 2007

Programming & Development : Alexandra Zaïnal
Co-Developer : Marc-Olivier Méhu
Technical & hardware support : Manuel Goepfert
Concept & Financing : Baudouin d'Aumeries